Main page
METAR-TAF:

METAR-TAF

Airports :

Linz, Austria

Linz Airport

latitude: 48-14N, longitude: 014-11E, elevation: 298 m

Current weather observation

The report was made 38 minutes ago, at 13:50 UTC
Wind 6 kt from the East/Southeast, varying between East/Northeast and Southeast
Temperature 27°C
Humidity 30%
Pressure 1020 hPa
Visibility 10 km or more
no clouds below 1500 m and no cumulonimbus

METAR: LOWL 281350Z 11006KT 070V140 CAVOK 27/08 Q1020 NOSIG

Time: 16:28 (14:28 UTC)

Forecast

The report was made 3 hours and 13 minutes ago, at 11:15 UTC
Forecast valid from 28 at 12 UTC to 29 at 12 UTC
Wind 10 kt from the East/Southeast
Visibility 10 km or more
no clouds below 1500 m and no cumulonimbus
Becoming
from 28 at 19 UTC to 28 at 21 UTC
Wind 4 kt from the East

TAF: LOWL 281115Z 2812/2912 11010KT CAVOK TX27/2912Z TN12/2903Z BECMG 2819/2821 08004KT

Weather observations and forecasts of more than 4000 airports (METAR and TAF reports).

The available stations are represented by yellow and red dots on the map.

Hover mouse over dot to see the name of the station.

Then click to see weather observations and forecasts.

To change the map : click on the green buttons with a black cross to zoom in, on the green button with a dash to zoom out, or on the green arrows for adjacent maps.


METAR-TAF: